createdAt,value
2018-10-17T00:01:34.643Z,11.83
2018-10-17T00:03:46.834Z,12.53
2018-10-17T00:05:59.063Z,12.43
2018-10-17T00:08:11.257Z,13.00
2018-10-17T00:10:29.947Z,13.03
2018-10-17T00:12:49.897Z,13.23
2018-10-17T00:15:02.143Z,12.03
2018-10-17T00:17:14.434Z,13.07
2018-10-17T00:19:26.557Z,12.27
2018-10-17T00:21:38.802Z,12.93
2018-10-17T00:23:51.026Z,13.50
2018-10-17T00:26:03.851Z,11.37
2018-10-17T00:28:16.049Z,12.23
2018-10-17T00:30:28.207Z,13.70
2018-10-17T00:32:40.458Z,11.00
2018-10-17T00:34:52.974Z,12.73
2018-10-17T00:37:05.225Z,11.33
2018-10-17T00:39:17.425Z,11.50
2018-10-17T00:41:29.631Z,13.87
2018-10-17T00:43:41.839Z,13.27
2018-10-17T00:45:54.021Z,12.93
2018-10-17T00:48:06.230Z,13.20
2018-10-17T00:50:18.480Z,10.77
2018-10-17T00:52:30.687Z,14.57
2018-10-17T00:54:42.927Z,10.20
2018-10-17T00:56:55.103Z,15.40
2018-10-17T00:59:16.090Z,12.00
2018-10-17T01:01:28.199Z,13.70
2018-10-17T01:03:40.436Z,12.60
2018-10-17T01:05:52.623Z,14.63
2018-10-17T01:08:04.882Z,11.63
2018-10-17T01:10:17.066Z,13.53
2018-10-17T01:12:29.274Z,11.63
2018-10-17T01:14:41.542Z,15.17
2018-10-17T01:16:53.783Z,13.00
2018-10-17T01:19:06.106Z,13.73
2018-10-17T01:21:18.302Z,16.77
2018-10-17T01:23:30.476Z,14.87
2018-10-17T01:25:42.694Z,12.73
2018-10-17T01:27:54.893Z,14.57
2018-10-17T01:30:07.237Z,13.77
2018-10-17T01:32:19.433Z,13.80
2018-10-17T01:34:31.675Z,13.77
2018-10-17T01:36:43.871Z,9.97
2018-10-17T01:38:56.064Z,10.97
2018-10-17T01:41:08.364Z,13.43
2018-10-17T01:43:20.571Z,12.33
2018-10-17T01:45:32.760Z,11.87
2018-10-17T01:47:44.953Z,12.43
2018-10-17T01:49:57.303Z,15.53
2018-10-17T01:52:09.494Z,14.33
2018-10-17T01:54:21.673Z,13.73
2018-10-17T01:56:33.924Z,13.07
2018-10-17T01:58:46.106Z,11.97
2018-10-17T02:01:03.425Z,15.23
2018-10-17T02:03:28.673Z,12.57
2018-10-17T02:05:41.018Z,12.30
2018-10-17T02:07:53.199Z,13.07
2018-10-17T02:10:05.425Z,14.03
2018-10-17T02:12:17.618Z,13.40
2018-10-17T02:14:29.806Z,12.97
2018-10-17T02:16:42.030Z,13.30
2018-10-17T02:18:54.247Z,13.10
2018-10-17T02:21:06.440Z,14.27
2018-10-17T02:23:18.657Z,14.70
2018-10-17T02:25:30.875Z,16.43
2018-10-17T02:27:43.057Z,14.03
2018-10-17T02:29:55.309Z,13.80
2018-10-17T02:32:07.474Z,12.90
2018-10-17T02:34:19.663Z,13.67
2018-10-17T02:36:31.898Z,13.63
2018-10-17T02:38:44.130Z,12.63
2018-10-17T02:41:01.975Z,15.43
2018-10-17T02:43:14.326Z,12.07
2018-10-17T02:45:26.411Z,12.60
2018-10-17T02:47:38.652Z,13.50
2018-10-17T02:49:50.939Z,13.73
2018-10-17T02:52:03.086Z,14.47
2018-10-17T02:54:15.311Z,12.93
2018-10-17T02:56:27.500Z,13.03
2018-10-17T02:58:39.733Z,11.47
2018-10-17T03:00:51.934Z,15.10
2018-10-17T03:03:04.495Z,12.53
2018-10-17T03:05:16.751Z,14.23
2018-10-17T03:07:28.946Z,12.43
2018-10-17T03:09:41.223Z,13.10
2018-10-17T03:11:53.415Z,11.43
2018-10-17T03:14:05.631Z,14.67
2018-10-17T03:16:17.833Z,12.80
2018-10-17T03:18:30.056Z,12.30
2018-10-17T03:20:42.355Z,13.70
2018-10-17T03:22:54.594Z,11.20
2018-10-17T03:25:07.749Z,12.87
2018-10-17T03:27:19.884Z,15.57
2018-10-17T03:29:32.096Z,12.90
2018-10-17T03:31:44.296Z,13.20
2018-10-17T03:33:56.503Z,12.03
2018-10-17T03:36:08.707Z,11.97
2018-10-17T03:38:20.889Z,12.83
2018-10-17T03:40:33.080Z,14.07
2018-10-17T03:42:45.308Z,12.93
2018-10-17T03:44:57.546Z,13.13
2018-10-17T03:47:09.789Z,12.37
2018-10-17T03:49:21.982Z,13.90
2018-10-17T03:51:34.178Z,12.67
2018-10-17T03:53:46.359Z,12.70
2018-10-17T03:55:58.565Z,14.97
2018-10-17T03:58:10.760Z,15.50
2018-10-17T04:00:23.059Z,14.37
2018-10-17T04:02:35.462Z,17.83
2018-10-17T04:04:47.723Z,12.37
2018-10-17T04:07:00.017Z,16.80
2018-10-17T04:09:12.199Z,13.53
2018-10-17T04:11:24.640Z,15.10
2018-10-17T04:13:36.848Z,14.40
2018-10-17T04:15:59.573Z,14.80
2018-10-17T04:18:19.418Z,14.53
2018-10-17T04:20:31.602Z,14.70
2018-10-17T04:22:48.372Z,14.80
2018-10-17T04:25:00.681Z,16.30
2018-10-17T04:27:12.867Z,14.17
2018-10-17T04:29:25.046Z,14.60
2018-10-17T04:31:37.279Z,17.40
2018-10-17T04:33:49.516Z,12.77
2018-10-17T04:36:01.873Z,12.97
2018-10-17T04:38:14.129Z,14.10
2018-10-17T04:40:26.320Z,13.63
2018-10-17T04:42:38.548Z,13.67
2018-10-17T04:44:50.768Z,15.37
2018-10-17T04:47:03.085Z,13.57
2018-10-17T04:49:15.298Z,15.03
2018-10-17T04:51:27.461Z,15.40
2018-10-17T04:53:39.664Z,16.93
2018-10-17T04:55:51.855Z,15.13
2018-10-17T04:58:04.138Z,15.13
2018-10-17T05:00:16.339Z,14.00
2018-10-17T05:02:28.571Z,16.00
2018-10-17T05:04:40.911Z,15.63
2018-10-17T05:06:52.992Z,13.87
2018-10-17T05:09:08.031Z,13.80
2018-10-17T05:11:20.394Z,15.00
2018-10-17T05:13:32.674Z,16.17
2018-10-17T05:15:44.872Z,14.60
2018-10-17T05:17:57.066Z,16.03
2018-10-17T05:20:13.299Z,16.67
2018-10-17T05:22:28.516Z,16.63
2018-10-17T05:24:40.741Z,18.70
2018-10-17T05:26:52.926Z,16.10
2018-10-17T05:29:05.211Z,18.13
2018-10-17T05:31:17.449Z,18.03
2018-10-17T05:33:29.582Z,17.77
2018-10-17T05:35:41.801Z,20.30
2018-10-17T05:37:54.036Z,14.07
2018-10-17T05:40:06.258Z,18.80
2018-10-17T05:42:18.491Z,15.80
2018-10-17T05:44:30.809Z,17.67
2018-10-17T05:46:42.920Z,18.00
2018-10-17T05:48:55.958Z,16.70
2018-10-17T05:51:08.117Z,16.63
2018-10-17T05:53:20.298Z,21.00
2018-10-17T05:55:32.604Z,18.00
2018-10-17T05:57:44.817Z,16.93
2018-10-17T05:59:57.057Z,14.67
2018-10-17T06:02:12.073Z,16.57
2018-10-17T06:04:24.216Z,23.37
2018-10-17T06:06:36.451Z,18.97
2018-10-17T06:08:48.646Z,15.17
2018-10-17T06:11:01.113Z,16.43
2018-10-17T06:13:13.308Z,17.90
2018-10-17T06:15:25.545Z,16.83
2018-10-17T06:17:37.756Z,18.40
2018-10-17T06:19:50.087Z,18.10
2018-10-17T06:22:02.341Z,21.23
2018-10-17T06:24:16.449Z,19.17
2018-10-17T06:26:28.763Z,16.57
2018-10-17T06:28:40.975Z,18.67
2018-10-17T06:30:53.190Z,13.47
2018-10-17T06:33:05.432Z,16.53
2018-10-17T06:35:17.651Z,17.20
2018-10-17T06:37:29.847Z,18.40
2018-10-17T06:39:42.059Z,15.33
2018-10-17T06:41:54.381Z,14.80
2018-10-17T06:44:07.024Z,18.80
2018-10-17T06:46:20.046Z,17.77
2018-10-17T06:48:32.514Z,17.23
2018-10-17T06:50:44.702Z,15.27
2018-10-17T06:52:56.946Z,19.77
2018-10-17T06:55:09.265Z,16.50
2018-10-17T06:57:21.417Z,16.67
2018-10-17T06:59:33.699Z,15.17
2018-10-17T07:01:45.904Z,13.17
2018-10-17T07:03:59.426Z,12.83
2018-10-17T07:06:11.652Z,17.50
2018-10-17T07:08:23.965Z,12.97
2018-10-17T07:10:36.151Z,17.97
2018-10-17T07:12:48.326Z,17.10
2018-10-17T07:15:00.552Z,19.27
2018-10-17T07:17:12.852Z,16.10
2018-10-17T07:19:25.161Z,17.27
2018-10-17T07:21:37.380Z,16.30
2018-10-17T07:23:49.608Z,19.63
2018-10-17T07:26:01.856Z,19.37
2018-10-17T07:28:14.139Z,19.10
2018-10-17T07:30:26.357Z,17.87
2018-10-17T07:32:38.608Z,15.37
2018-10-17T07:34:50.871Z,13.90
2018-10-17T07:37:03.102Z,15.33
2018-10-17T07:39:15.319Z,13.80
2018-10-17T07:41:27.589Z,17.73
2018-10-17T07:43:39.815Z,18.30
2018-10-17T07:45:52.047Z,15.63
2018-10-17T07:48:04.499Z,16.93
2018-10-17T07:50:16.687Z,17.00
2018-10-17T07:52:29.649Z,16.30
2018-10-17T07:54:41.879Z,17.77
2018-10-17T07:56:54.134Z,13.90
2018-10-17T07:59:06.379Z,18.97
2018-10-17T08:01:18.623Z,18.20
2018-10-17T08:03:30.807Z,23.07
2018-10-17T08:05:43.041Z,18.13
2018-10-17T08:07:55.240Z,22.17
2018-10-17T08:10:08.647Z,22.30
2018-10-17T08:12:20.897Z,18.20
2018-10-17T08:14:33.083Z,18.43
2018-10-17T08:16:45.320Z,17.47
2018-10-17T08:18:57.563Z,20.43
2018-10-17T08:21:09.922Z,14.50
2018-10-17T08:23:22.081Z,17.23
2018-10-17T08:25:34.314Z,17.97
2018-10-17T08:27:46.544Z,20.67
2018-10-17T08:29:58.767Z,22.57
2018-10-17T08:32:11.074Z,21.10
2018-10-17T08:34:23.266Z,14.80
2018-10-17T08:36:35.701Z,19.40
2018-10-17T08:38:47.770Z,12.70
2018-10-17T08:41:00.053Z,16.67
2018-10-17T08:43:12.259Z,16.03
2018-10-17T08:45:25.391Z,16.63
2018-10-17T08:47:37.631Z,20.90
2018-10-17T08:49:49.883Z,18.37
2018-10-17T08:52:02.220Z,15.67
2018-10-17T08:54:14.437Z,19.73
2018-10-17T08:56:26.803Z,16.87
2018-10-17T08:58:39.059Z,16.13
2018-10-17T09:00:51.250Z,16.30
2018-10-17T09:03:03.603Z,15.87
2018-10-17T09:05:15.835Z,14.10
2018-10-17T09:07:28.063Z,15.63
2018-10-17T09:09:40.311Z,13.90
2018-10-17T09:11:52.561Z,13.67
2018-10-17T09:14:05.298Z,12.50
2018-10-17T09:16:17.586Z,16.10
2018-10-17T09:18:29.802Z,15.80
2018-10-17T09:20:42.424Z,15.40
2018-10-17T09:22:54.321Z,16.83
2018-10-17T09:25:06.624Z,14.13
2018-10-17T09:27:18.807Z,14.43
2018-10-17T09:29:31.029Z,12.87
2018-10-17T09:31:46.824Z,18.20
2018-10-17T09:33:59.052Z,12.60
2018-10-17T09:36:11.334Z,14.27
2018-10-17T09:38:23.508Z,18.40
2018-10-17T09:40:35.731Z,12.87
2018-10-17T09:42:48.032Z,10.33
2018-10-17T09:45:00.343Z,11.73
2018-10-17T09:47:12.554Z,10.27
2018-10-17T09:49:24.772Z,8.97
2018-10-17T09:51:36.968Z,12.90
2018-10-17T09:53:49.201Z,11.90
2018-10-17T09:56:01.431Z,12.73
2018-10-17T09:58:18.441Z,12.73
2018-10-17T10:00:36.286Z,14.20
2018-10-17T10:02:50.015Z,10.30
2018-10-17T10:05:02.238Z,11.80
2018-10-17T10:07:14.486Z,10.70
2018-10-17T10:09:27.699Z,9.87
2018-10-17T10:11:39.972Z,11.37
2018-10-17T10:13:52.179Z,11.80
2018-10-17T10:16:04.496Z,12.60
2018-10-17T10:18:16.739Z,12.27
2018-10-17T10:20:28.940Z,11.97
2018-10-17T10:22:41.227Z,15.00
2018-10-17T10:24:53.577Z,12.57
2018-10-17T10:27:05.715Z,12.07
2018-10-17T10:29:17.954Z,13.37
2018-10-17T10:31:30.191Z,10.00
2018-10-17T10:33:42.442Z,11.40
2018-10-17T10:35:55.690Z,11.60
2018-10-17T10:38:07.927Z,11.57
2018-10-17T10:40:20.161Z,9.80
2018-10-17T10:42:33.434Z,10.37
2018-10-17T10:44:45.649Z,12.03
2018-10-17T10:46:57.877Z,12.57
2018-10-17T10:49:13.156Z,10.03
2018-10-17T10:51:26.247Z,8.70
2018-10-17T10:53:38.493Z,10.43
2018-10-17T10:55:50.726Z,8.30
2018-10-17T10:58:03.944Z,8.50
2018-10-17T11:00:16.262Z,10.47
2018-10-17T11:02:28.351Z,11.13
2018-10-17T11:04:40.658Z,10.97
2018-10-17T11:06:52.895Z,12.53
2018-10-17T11:09:06.816Z,10.83
2018-10-17T11:11:19.279Z,12.40
2018-10-17T11:13:31.309Z,11.17
2018-10-17T11:15:43.516Z,10.57
2018-10-17T11:17:55.732Z,10.47
2018-10-17T11:20:08.355Z,12.03
2018-10-17T11:22:20.593Z,10.30
2018-10-17T11:24:32.818Z,9.70
2018-10-17T11:26:45.154Z,11.60
2018-10-17T11:28:57.455Z,8.90
2018-10-17T11:31:09.659Z,10.90
2018-10-17T11:33:21.895Z,9.57
2018-10-17T11:35:34.172Z,8.70
2018-10-17T11:37:46.512Z,9.33
2018-10-17T11:39:58.757Z,9.50
2018-10-17T11:42:10.985Z,8.43
2018-10-17T11:44:24.054Z,12.20
2018-10-17T11:46:37.275Z,12.37
2018-10-17T11:48:51.525Z,11.47
2018-10-17T11:51:03.850Z,11.17
2018-10-17T11:53:16.086Z,8.00
2018-10-17T11:55:28.307Z,9.23
2018-10-17T11:57:40.539Z,10.87
2018-10-17T11:59:52.812Z,8.53
2018-10-17T12:02:05.216Z,9.10
2018-10-17T12:04:17.641Z,10.43
2018-10-17T12:06:29.784Z,9.47
2018-10-17T12:08:42.119Z,9.03
2018-10-17T12:10:54.379Z,15.93
2018-10-17T12:13:06.670Z,8.90
2018-10-17T12:15:18.905Z,7.10
2018-10-17T12:17:31.883Z,10.87
2018-10-17T12:19:45.119Z,8.00
2018-10-17T12:21:57.366Z,10.00
2018-10-17T12:24:09.622Z,8.87
2018-10-17T12:26:21.828Z,8.93
2018-10-17T12:28:34.153Z,8.90
2018-10-17T12:30:46.275Z,10.90
2018-10-17T12:32:58.591Z,8.53
2018-10-17T12:35:11.198Z,11.07
2018-10-17T12:37:24.947Z,9.40
2018-10-17T12:39:38.206Z,9.50
2018-10-17T12:41:50.530Z,10.63
2018-10-17T12:44:04.718Z,8.20
2018-10-17T12:46:16.922Z,6.17
2018-10-17T12:48:29.187Z,8.60
2018-10-17T12:50:41.399Z,8.80
2018-10-17T12:52:53.747Z,9.27
2018-10-17T12:55:06.522Z,12.47
2018-10-17T12:57:18.750Z,8.97
2018-10-17T12:59:30.972Z,7.90
2018-10-17T13:01:43.249Z,8.40
2018-10-17T13:03:55.466Z,7.67
2018-10-17T13:06:07.987Z,7.10
2018-10-17T13:08:20.195Z,7.53
2018-10-17T13:10:32.481Z,11.60
2018-10-17T13:12:44.741Z,9.50
2018-10-17T13:14:57.031Z,11.10
2018-10-17T13:17:10.224Z,15.47
2018-10-17T13:19:26.243Z,9.57
2018-10-17T13:21:38.492Z,10.07
2018-10-17T13:23:50.767Z,14.33
2018-10-17T13:26:02.978Z,16.10
2018-10-17T13:28:16.140Z,11.83
2018-10-17T13:30:28.433Z,11.13
2018-10-17T13:32:40.683Z,13.27
2018-10-17T13:34:52.928Z,9.80
2018-10-17T13:37:05.477Z,11.80
2018-10-17T13:39:17.672Z,10.33
2018-10-17T13:41:29.912Z,10.00
2018-10-17T13:43:44.012Z,10.70
2018-10-17T13:45:56.258Z,13.17
2018-10-17T13:48:08.495Z,10.20
2018-10-17T13:50:20.719Z,9.83
2018-10-17T13:52:33.016Z,13.43
2018-10-17T13:54:45.306Z,9.07
2018-10-17T13:56:57.455Z,10.67
2018-10-17T13:59:09.829Z,9.07
2018-10-17T14:01:23.173Z,12.87
2018-10-17T14:03:35.479Z,12.33
2018-10-17T14:05:48.007Z,12.00
2018-10-17T14:08:00.249Z,8.57
2018-10-17T14:10:12.479Z,12.20
2018-10-17T14:12:24.704Z,10.10
2018-10-17T14:14:36.974Z,8.97
2018-10-17T14:16:49.218Z,11.93
2018-10-17T14:19:02.406Z,10.70
2018-10-17T14:21:14.706Z,12.30
2018-10-17T14:23:26.939Z,12.47
2018-10-17T14:25:40.156Z,13.33
2018-10-17T14:27:52.359Z,11.93
2018-10-17T14:30:06.641Z,12.43
2018-10-17T14:32:21.730Z,11.57
2018-10-17T14:34:34.331Z,11.87
2018-10-17T14:36:46.588Z,12.73
2018-10-17T14:38:58.877Z,18.97
2018-10-17T14:41:11.210Z,13.33
2018-10-17T14:43:23.392Z,16.83
2018-10-17T14:45:35.618Z,15.47
2018-10-17T14:47:47.921Z,14.40
2018-10-17T14:50:01.981Z,14.20
2018-10-17T14:52:15.268Z,16.63
2018-10-17T14:54:27.515Z,15.37
2018-10-17T14:56:39.738Z,14.87
2018-10-17T14:58:52.078Z,15.67
2018-10-17T15:01:04.373Z,13.63
2018-10-17T15:03:16.734Z,12.13
2018-10-17T15:05:33.683Z,13.80
2018-10-17T15:07:45.952Z,13.77
2018-10-17T15:09:58.305Z,13.83
2018-10-17T15:12:10.542Z,11.83
2018-10-17T15:14:22.772Z,11.80
2018-10-17T15:16:35.079Z,10.20
2018-10-17T15:18:50.245Z,8.57
2018-10-17T15:21:02.531Z,11.70
2018-10-17T15:23:15.730Z,13.53
2018-10-17T15:25:27.991Z,10.37
2018-10-17T15:27:40.280Z,8.30
2018-10-17T15:29:52.544Z,11.37
2018-10-17T15:32:05.610Z,9.73
2018-10-17T15:34:17.850Z,10.60
2018-10-17T15:36:30.091Z,10.70
2018-10-17T15:38:42.336Z,14.77
2018-10-17T15:40:54.535Z,13.33
2018-10-17T15:43:06.892Z,11.13
2018-10-17T15:45:19.419Z,7.10
2018-10-17T15:47:31.603Z,14.07
2018-10-17T15:49:45.846Z,9.63
2018-10-17T15:51:58.107Z,13.63
2018-10-17T15:54:10.473Z,11.90
2018-10-17T15:56:22.644Z,9.37
2018-10-17T15:58:34.912Z,9.23
2018-10-17T16:00:47.270Z,11.40
2018-10-17T16:02:59.484Z,10.73
2018-10-17T16:05:11.892Z,10.10
2018-10-17T16:07:24.084Z,10.80
2018-10-17T16:09:36.427Z,12.87
2018-10-17T16:11:48.627Z,8.50
2018-10-17T16:14:01.694Z,9.47
2018-10-17T16:16:13.964Z,10.67
2018-10-17T16:18:26.174Z,10.63
2018-10-17T16:20:38.514Z,10.93
2018-10-17T16:22:50.841Z,9.87
2018-10-17T16:25:03.230Z,12.17
2018-10-17T16:27:15.512Z,10.40
2018-10-17T16:29:27.915Z,12.33
2018-10-17T16:31:40.215Z,10.93
2018-10-17T16:33:52.447Z,9.53
2018-10-17T16:36:05.269Z,11.17
2018-10-17T16:38:17.568Z,12.27
2018-10-17T16:40:29.723Z,13.77
2018-10-17T16:42:41.992Z,12.37
2018-10-17T16:44:54.239Z,10.17
2018-10-17T16:47:06.568Z,12.20
2018-10-17T16:49:18.763Z,9.57
2018-10-17T16:51:31.090Z,12.57
2018-10-17T16:53:43.420Z,9.70
2018-10-17T16:55:55.673Z,10.10
2018-10-17T16:58:07.943Z,12.47
2018-10-17T17:00:20.159Z,9.77
2018-10-17T17:02:32.405Z,11.30
2018-10-17T17:04:45.499Z,14.40
2018-10-17T17:06:57.779Z,11.77
2018-10-17T17:09:10.685Z,10.37
2018-10-17T17:11:22.838Z,9.73
2018-10-17T17:13:36.999Z,13.10
2018-10-17T17:15:51.016Z,10.97
2018-10-17T17:18:03.330Z,13.57
2018-10-17T17:20:15.563Z,13.80
2018-10-17T17:22:27.800Z,11.33
2018-10-17T17:24:40.233Z,12.13
2018-10-17T17:26:52.663Z,17.20
2018-10-17T17:29:05.097Z,10.77
2018-10-17T17:31:17.440Z,17.13
2018-10-17T17:33:29.765Z,13.90
2018-10-17T17:35:41.997Z,12.27
2018-10-17T17:37:54.256Z,12.97
2018-10-17T17:40:07.706Z,13.33
2018-10-17T17:42:19.929Z,14.03
2018-10-17T17:44:32.313Z,10.47
2018-10-17T17:46:44.578Z,12.27
2018-10-17T17:48:56.770Z,13.00
2018-10-17T17:51:09.013Z,12.00
2018-10-17T17:53:21.339Z,14.80
2018-10-17T17:55:33.640Z,11.13
2018-10-17T17:57:45.906Z,11.97
2018-10-17T17:59:58.231Z,10.60
2018-10-17T18:02:10.528Z,12.13
2018-10-17T18:04:22.815Z,12.83
2018-10-17T18:06:35.073Z,12.13
2018-10-17T18:08:47.292Z,10.93
2018-10-17T18:11:12.159Z,15.27
2018-10-17T18:13:24.415Z,13.40
2018-10-17T18:15:36.691Z,13.77
2018-10-17T18:17:48.919Z,14.87
2018-10-17T18:20:01.230Z,13.53
2018-10-17T18:22:13.451Z,12.13
2018-10-17T18:24:25.707Z,11.70
2018-10-17T18:26:37.950Z,13.97
2018-10-17T18:28:51.059Z,11.17
2018-10-17T18:31:03.331Z,12.93
2018-10-17T18:33:15.599Z,14.07
2018-10-17T18:35:27.922Z,14.37
2018-10-17T18:37:40.208Z,12.67
2018-10-17T18:39:52.508Z,14.77
2018-10-17T18:42:05.140Z,12.67
2018-10-17T18:44:17.398Z,14.20
2018-10-17T18:46:29.752Z,14.50
2018-10-17T18:48:41.994Z,11.40
2018-10-17T18:50:54.316Z,14.60
2018-10-17T18:53:06.524Z,13.90
2018-10-17T18:55:18.818Z,14.23
2018-10-17T18:57:31.067Z,13.97
2018-10-17T18:59:43.293Z,13.87
2018-10-17T19:01:55.575Z,15.63
2018-10-17T19:04:07.843Z,12.73
2018-10-17T19:06:20.072Z,12.30
2018-10-17T19:08:32.315Z,15.67
2018-10-17T19:10:44.587Z,14.37
2018-10-17T19:12:56.886Z,14.47
2018-10-17T19:15:09.159Z,12.10
2018-10-17T19:17:21.405Z,12.23
2018-10-17T19:19:33.726Z,14.73
2018-10-17T19:21:45.955Z,14.67
2018-10-17T19:23:58.214Z,13.70
2018-10-17T19:26:10.520Z,13.27
2018-10-17T19:28:22.860Z,13.47
2018-10-17T19:30:35.134Z,14.13
2018-10-17T19:32:47.392Z,15.93
2018-10-17T19:34:59.634Z,14.33
2018-10-17T19:37:11.922Z,16.13
2018-10-17T19:39:24.193Z,14.60
2018-10-17T19:41:36.465Z,13.80
2018-10-17T19:43:48.721Z,16.40
2018-10-17T19:46:00.972Z,14.03
2018-10-17T19:48:13.240Z,14.57
2018-10-17T19:50:25.510Z,16.37
2018-10-17T19:52:37.836Z,15.17
2018-10-17T19:54:50.218Z,14.57
2018-10-17T19:57:02.514Z,14.03
2018-10-17T19:59:14.832Z,13.83
2018-10-17T20:01:27.624Z,15.43
2018-10-17T20:03:39.900Z,13.23
2018-10-17T20:05:52.197Z,17.23
2018-10-17T20:08:04.472Z,16.93
2018-10-17T20:10:16.767Z,16.50
2018-10-17T20:12:28.991Z,14.83
2018-10-17T20:14:41.248Z,14.73
2018-10-17T20:16:53.601Z,15.67
2018-10-17T20:19:05.954Z,17.17
2018-10-17T20:21:18.293Z,15.13
2018-10-17T20:23:30.551Z,16.83
2018-10-17T20:25:42.827Z,15.37
2018-10-17T20:27:55.055Z,14.90
2018-10-17T20:30:07.897Z,15.83
2018-10-17T20:32:20.196Z,14.60
2018-10-17T20:34:32.452Z,11.23
2018-10-17T20:36:44.691Z,16.00
2018-10-17T20:38:56.961Z,14.37
2018-10-17T20:41:09.288Z,16.13
2018-10-17T20:43:21.521Z,14.87
2018-10-17T20:45:33.759Z,16.83
2018-10-17T20:47:46.009Z,16.60
2018-10-17T20:49:58.309Z,14.57
2018-10-17T20:52:10.582Z,14.77
2018-10-17T20:54:22.810Z,16.93
2018-10-17T20:56:35.134Z,17.70
2018-10-17T20:58:47.391Z,17.03
2018-10-17T21:00:59.651Z,18.40
2018-10-17T21:03:11.939Z,18.20
2018-10-17T21:05:24.147Z,15.17
2018-10-17T21:07:36.479Z,14.10
2018-10-17T21:09:48.712Z,15.20
2018-10-17T21:12:01.001Z,16.47
2018-10-17T21:14:13.335Z,15.67
2018-10-17T21:16:25.566Z,14.57
2018-10-17T21:18:37.885Z,17.90
2018-10-17T21:20:50.064Z,15.53
2018-10-17T21:23:02.362Z,14.47
2018-10-17T21:25:14.555Z,16.57
2018-10-17T21:27:26.818Z,15.17
2018-10-17T21:29:39.039Z,15.47
2018-10-17T21:31:51.282Z,20.93
2018-10-17T21:34:03.532Z,18.03
2018-10-17T21:36:15.749Z,16.17
2018-10-17T21:38:28.001Z,16.17
2018-10-17T21:40:40.219Z,16.03
2018-10-17T21:42:52.491Z,16.80
2018-10-17T21:45:05.515Z,16.67
2018-10-17T21:47:17.759Z,15.60
2018-10-17T21:49:29.963Z,15.67
2018-10-17T21:51:42.191Z,16.57
2018-10-17T21:53:54.481Z,15.27
2018-10-17T21:56:06.861Z,17.73
2018-10-17T21:58:19.003Z,18.30
2018-10-17T22:00:31.341Z,15.70
2018-10-17T22:02:43.540Z,18.03
2018-10-17T22:04:55.784Z,16.80
2018-10-17T22:07:08.256Z,18.17
2018-10-17T22:09:20.460Z,17.30
2018-10-17T22:11:32.689Z,16.70
2018-10-17T22:13:44.951Z,18.30
2018-10-17T22:15:57.246Z,17.13
2018-10-17T22:18:09.449Z,19.67
2018-10-17T22:20:21.735Z,17.13
2018-10-17T22:22:33.972Z,14.63
2018-10-17T22:24:46.251Z,16.50
2018-10-17T22:26:58.519Z,18.00
2018-10-17T22:29:10.707Z,14.77
2018-10-17T22:31:22.937Z,18.60
2018-10-17T22:33:35.147Z,16.63
2018-10-17T22:35:47.365Z,16.27
2018-10-17T22:37:59.647Z,15.37
2018-10-17T22:40:11.868Z,18.10
2018-10-17T22:42:24.090Z,17.57
2018-10-17T22:44:36.343Z,13.53
2018-10-17T22:46:48.590Z,17.77
2018-10-17T22:49:00.842Z,18.70
2018-10-17T22:51:13.057Z,20.03
2018-10-17T22:53:25.278Z,16.07
2018-10-17T22:55:37.462Z,18.57
2018-10-17T22:57:49.700Z,19.43
2018-10-17T23:00:02.163Z,16.80
2018-10-17T23:02:14.485Z,18.67
2018-10-17T23:04:26.590Z,16.17
2018-10-17T23:06:38.794Z,16.67
2018-10-17T23:08:51.016Z,17.13
2018-10-17T23:11:03.226Z,15.87
2018-10-17T23:13:15.455Z,18.43
2018-10-17T23:15:27.668Z,17.80
2018-10-17T23:17:39.895Z,20.27
2018-10-17T23:19:52.209Z,16.40
2018-10-17T23:22:04.581Z,16.10
2018-10-17T23:24:16.791Z,17.07
2018-10-17T23:26:29.000Z,15.60
2018-10-17T23:28:41.187Z,17.80
2018-10-17T23:30:53.419Z,17.23
2018-10-17T23:33:05.657Z,17.87
2018-10-17T23:35:17.951Z,17.37
2018-10-17T23:37:30.262Z,19.73
2018-10-17T23:39:42.514Z,18.33
2018-10-17T23:41:54.760Z,18.43
2018-10-17T23:44:07.004Z,18.57
2018-10-17T23:46:19.238Z,21.17
2018-10-17T23:48:31.440Z,18.93
2018-10-17T23:50:43.644Z,16.30
2018-10-17T23:52:55.861Z,18.77
2018-10-17T23:55:08.422Z,17.77
2018-10-17T23:57:20.662Z,20.13
2018-10-17T23:59:32.839Z,19.60
